Time;durP1;ratioP1;P1;durP2;ratioP2;P2;SDS_P1;SDS_P2;PMS_P1;PMS_P2;Temp;Humidity;BMP_temperature;BMP_pressure;BME280_temperature;BME280_humidity;BME280_pressure;Samples;Min_cycle;Max_cycle;Signal;HPM_P1;HPM_P2
2022/03/06 00:00:03;;;;;;;17.33;8.10;;;-1.90;45.00;;;;;;5029941;28;46441;-67
2022/03/06 00:02:29;;;;;;;16.63;7.95;;;-1.90;45.00;;;;;;5030353;28;46396;-64
2022/03/06 00:04:54;;;;;;;18.23;8.63;;;-1.90;44.90;;;;;;5028583;28;46622;-65
2022/03/06 00:07:20;;;;;;;16.40;7.77;;;-1.90;45.10;;;;;;5032103;28;46694;-65
2022/03/06 00:09:45;;;;;;;15.40;7.60;;;-2.00;44.80;;;;;;5033892;28;46414;-66
2022/03/06 00:12:11;;;;;;;13.73;7.67;;;-2.00;45.00;;;;;;5031252;28;46462;-65
2022/03/06 00:14:38;;;;;;;17.10;8.73;;;-2.00;44.90;;;;;;5037674;28;46065;-64
2022/03/06 00:17:03;;;;;;;15.70;8.43;;;-2.00;44.80;;;;;;5037133;28;46480;-66
2022/03/06 00:19:29;;;;;;;16.47;8.10;;;-2.00;44.90;;;;;;5034175;28;46291;-66
2022/03/06 00:21:55;;;;;;;17.47;8.97;;;-2.10;44.90;;;;;;5033527;28;46274;-67
2022/03/06 00:24:20;;;;;;;20.67;7.30;;;-2.10;44.90;;;;;;5033372;28;46406;-66
2022/03/06 00:26:46;;;;;;;16.30;8.87;;;-2.10;45.10;;;;;;5032168;28;46340;-66
2022/03/06 00:29:12;;;;;;;13.70;7.83;;;-2.20;44.90;;;;;;5031770;28;46387;-67
2022/03/06 00:31:39;;;;;;;15.88;7.15;;;-2.20;45.00;;;;;;5030449;28;46410;-66
2022/03/06 00:34:05;;;;;;;14.10;7.72;;;-2.20;45.20;;;;;;5039732;28;46556;-68
2022/03/06 00:36:30;;;;;;;16.43;8.60;;;-2.20;45.50;;;;;;5034021;28;46119;-66
2022/03/06 00:38:56;;;;;;;17.27;8.20;;;-2.20;45.90;;;;;;5031650;28;46386;-67
2022/03/06 00:41:23;;;;;;;18.53;8.47;;;-2.20;46.00;;;;;;5034268;28;46373;-66
2022/03/06 00:43:49;;;;;;;16.38;7.18;;;-2.20;46.00;;;;;;5037408;28;45976;-67
2022/03/06 00:46:14;;;;;;;15.25;8.73;;;-2.30;46.30;;;;;;5030539;28;46461;-65
2022/03/06 00:48:40;;;;;;;21.47;8.83;;;-2.30;46.40;;;;;;5034505;28;46620;-68
2022/03/06 00:51:06;;;;;;;13.90;7.23;;;-2.20;46.90;;;;;;5030535;28;47218;-65
2022/03/06 00:53:31;;;;;;;16.57;9.20;;;-2.20;47.20;;;;;;5034980;28;46458;-66
2022/03/06 00:55:57;;;;;;;15.97;7.83;;;-2.20;47.00;;;;;;5034515;28;46444;-67
2022/03/06 00:58:22;;;;;;;17.07;8.40;;;-2.20;47.20;;;;;;5037184;28;46556;-65
2022/03/06 01:00:48;;;;;;;14.27;7.90;;;-2.20;47.30;;;;;;5031170;28;46469;-66
2022/03/06 01:03:20;;;;;;;17.57;8.40;;;-2.20;47.40;;;;;;5033042;28;46307;-65
2022/03/06 01:05:46;;;;;;;16.92;8.73;;;-2.30;47.20;;;;;;5034475;28;46492;-67
2022/03/06 01:08:13;;;;;;;18.55;8.63;;;-2.30;47.20;;;;;;5029316;28;46348;-66
2022/03/06 01:10:40;;;;;;;23.42;9.48;;;-2.30;47.00;;;;;;5029421;28;46514;-65
2022/03/06 01:13:08;;;;;;;18.77;8.15;;;-2.30;47.10;;;;;;5028873;28;46315;-67
2022/03/06 01:15:35;;;;;;;23.48;9.57;;;-2.30;47.50;;;;;;5032124;28;45736;-65
2022/03/06 01:18:01;;;;;;;21.15;8.80;;;-2.30;47.40;;;;;;5040548;28;46386;-64
2022/03/06 01:20:26;;;;;;;19.87;9.70;;;-2.30;47.30;;;;;;5039886;28;46415;-68
2022/03/06 01:22:53;;;;;;;19.30;9.60;;;-2.30;47.20;;;;;;5035992;28;46291;-66
2022/03/06 01:25:20;;;;;;;20.00;9.75;;;-2.40;47.10;;;;;;5035877;28;46387;-67
2022/03/06 01:27:45;;;;;;;21.23;7.95;;;-2.40;47.20;;;;;;5038369;28;46313;-68
2022/03/06 01:30:12;;;;;;;15.77;8.17;;;-2.40;47.20;;;;;;5037896;28;47252;-66
2022/03/06 01:32:39;;;;;;;19.38;8.25;;;-2.50;47.20;;;;;;5028425;28;46136;-65
2022/03/06 01:35:05;;;;;;;20.50;9.67;;;-2.40;47.40;;;;;;5031191;28;46394;-64
2022/03/06 01:37:31;;;;;;;26.63;10.70;;;-2.50;47.30;;;;;;5031161;28;46442;-66
2022/03/06 01:39:57;;;;;;;17.65;8.95;;;-2.50;47.30;;;;;;5026457;28;46156;-64
2022/03/06 01:42:23;;;;;;;19.10;9.00;;;-2.50;47.40;;;;;;5026290;28;46307;-66
2022/03/06 01:44:50;;;;;;;19.67;9.10;;;-2.50;47.20;;;;;;5028971;28;46345;-66
2022/03/06 01:47:31;;;;;;;18.60;9.60;;;-2.50;47.10;;;;;;5037627;28;46450;-67
2022/03/06 01:49:56;;;;;;;19.00;9.60;;;-2.50;47.20;;;;;;5036268;28;47119;-68
2022/03/06 01:52:22;;;;;;;20.60;10.10;;;-2.60;47.10;;;;;;5035150;28;46960;-66
2022/03/06 01:54:47;;;;;;;17.63;9.13;;;-2.60;47.10;;;;;;5031811;28;46289;-66
2022/03/06 01:57:13;;;;;;;24.37;9.53;;;-2.60;47.20;;;;;;5031797;28;46408;-68
2022/03/06 01:59:39;;;;;;;22.03;9.87;;;-2.60;47.20;;;;;;5032702;28;46309;-66
2022/03/06 02:02:04;;;;;;;21.87;10.03;;;-2.70;47.20;;;;;;5029209;28;46466;-66
2022/03/06 02:04:30;;;;;;;21.60;10.30;;;-2.70;47.20;;;;;;5031350;28;46486;-65
2022/03/06 02:06:56;;;;;;;24.20;11.90;;;-2.70;47.20;;;;;;5031134;28;46671;-67
2022/03/06 02:09:21;;;;;;;23.13;10.13;;;-2.70;47.20;;;;;;5035110;28;46207;-65
2022/03/06 02:12:18;;;;;;;20.90;10.40;;;-2.70;47.20;;;;;;5034399;28;46296;-64
2022/03/06 02:14:32;;;;;;;20.63;9.52;;;-2.70;47.20;;;;;;5035021;28;46346;-67
2022/03/06 02:16:58;;;;;;;22.07;10.13;;;-2.70;47.20;;;;;;5027336;28;46335;-65
2022/03/06 02:19:24;;;;;;;16.03;8.70;;;-2.70;47.20;;;;;;5031813;28;47109;-66
2022/03/06 02:21:49;;;;;;;19.07;9.23;;;-2.70;47.20;;;;;;5034523;28;46383;-64
2022/03/06 02:24:15;;;;;;;16.77;9.20;;;-2.70;47.30;;;;;;5029254;28;45937;-65
2022/03/06 02:26:40;;;;;;;19.13;9.57;;;-2.70;47.30;;;;;;5028572;28;46395;-66
2022/03/06 02:29:06;;;;;;;18.30;9.17;;;-2.80;47.20;;;;;;5035574;28;47017;-66
2022/03/06 02:31:32;;;;;;;20.10;9.37;;;-2.80;47.20;;;;;;5031977;28;46504;-69
2022/03/06 02:33:58;;;;;;;23.10;9.85;;;-2.80;47.50;;;;;;5033671;28;46462;-68
2022/03/06 02:36:23;;;;;;;21.17;10.30;;;-2.90;47.40;;;;;;5031589;28;46380;-66
2022/03/06 02:38:50;;;;;;;24.47;10.10;;;-2.90;47.70;;;;;;5032517;28;47308;-67
2022/03/06 02:41:15;;;;;;;22.38;9.77;;;-2.90;47.40;;;;;;5030208;28;46395;-67
2022/03/06 02:43:41;;;;;;;19.63;8.70;;;-2.90;47.50;;;;;;5029529;28;46452;-66
2022/03/06 02:46:06;;;;;;;19.43;9.80;;;-3.00;47.40;;;;;;5029431;28;46399;-68
2022/03/06 02:48:32;;;;;;;18.20;9.30;;;-2.90;47.70;;;;;;5032537;28;46346;-65
2022/03/06 02:50:57;;;;;;;21.20;9.73;;;-3.00;47.50;;;;;;5027288;28;46529;-67
2022/03/06 02:53:23;;;;;;;18.27;9.80;;;-3.00;47.60;;;;;;5030985;28;46403;-67
2022/03/06 02:55:49;;;;;;;20.23;9.63;;;-3.00;47.40;;;;;;5034617;28;45858;-65
2022/03/06 02:58:14;;;;;;;19.43;8.97;;;-3.00;47.50;;;;;;5034495;28;47170;-66
2022/03/06 03:00:40;;;;;;;19.40;9.27;;;-3.10;47.50;;;;;;5034416;28;46360;-64
2022/03/06 03:03:06;;;;;;;22.37;10.17;;;-3.10;47.60;;;;;;5031400;28;46429;-66
2022/03/06 03:05:31;;;;;;;22.97;11.07;;;-3.10;47.50;;;;;;5031421;28;46406;-64
2022/03/06 03:07:58;;;;;;;25.97;11.80;;;-3.20;47.50;;;;;;5034697;28;47090;-69
2022/03/06 03:10:25;;;;;;;20.90;9.70;;;-3.20;47.60;;;;;;5031529;28;46397;-66
2022/03/06 03:12:52;;;;;;;25.95;10.70;;;-3.30;47.70;;;;;;5030766;28;46363;-66
2022/03/06 03:15:18;;;;;;;17.92;9.65;;;-3.40;47.70;;;;;;5029065;28;46540;-66
2022/03/06 03:17:45;;;;;;;20.38;9.07;;;-3.40;47.90;;;;;;5028654;28;46354;-66
2022/03/06 03:20:11;;;;;;;20.15;9.20;;;-3.50;47.90;;;;;;5035778;28;46665;-66
2022/03/06 03:22:37;;;;;;;17.52;9.05;;;-3.50;48.00;;;;;;5031723;28;46378;-68
2022/03/06 03:25:04;;;;;;;17.85;9.20;;;-3.60;47.80;;;;;;5027507;28;46684;-65
2022/03/06 03:27:30;;;;;;;23.48;9.60;;;-3.60;47.70;;;;;;5029154;28;47366;-66
2022/03/06 03:29:55;;;;;;;18.20;9.40;;;-3.60;47.70;;;;;;5033454;28;46462;-69
2022/03/06 03:32:21;;;;;;;26.30;9.87;;;-3.60;49.00;;;;;;5025887;28;46391;-66
2022/03/06 03:34:47;;;;;;;15.57;8.47;;;-3.70;48.50;;;;;;5027095;28;46537;-65
2022/03/06 03:37:13;;;;;;;17.70;8.10;;;-3.70;47.70;;;;;;5028579;28;47040;-68
2022/03/06 03:39:38;;;;;;;19.33;9.00;;;-3.70;47.70;;;;;;5032938;28;46464;-68
2022/03/06 03:42:04;;;;;;;19.00;9.67;;;-3.70;47.70;;;;;;5033930;28;46283;-64
2022/03/06 03:44:29;;;;;;;16.67;8.90;;;-3.70;47.60;;;;;;5034758;28;46347;-65
2022/03/06 03:46:55;;;;;;;17.20;9.00;;;-3.60;47.60;;;;;;5028457;28;46160;-66
2022/03/06 03:49:21;;;;;;;18.83;9.07;;;-3.60;47.70;;;;;;5029706;28;46701;-66
2022/03/06 03:51:46;;;;;;;25.00;9.50;;;-3.60;47.70;;;;;;5030771;28;45876;-65
2022/03/06 03:54:13;;;;;;;20.43;10.10;;;-3.60;47.70;;;;;;5026899;28;46569;-66
2022/03/06 03:56:38;;;;;;;23.42;10.10;;;-3.60;48.10;;;;;;5027945;28;46958;-66
2022/03/06 03:59:04;;;;;;;16.47;8.67;;;-3.60;47.70;;;;;;5026630;28;46430;-66
2022/03/06 04:01:30;;;;;;;19.80;9.43;;;-3.70;47.70;;;;;;5021664;28;46390;-68
2022/03/06 04:03:55;;;;;;;18.27;8.70;;;-3.70;47.70;;;;;;5026772;28;46373;-67
2022/03/06 04:06:21;;;;;;;18.90;9.10;;;-3.80;47.70;;;;;;5037603;28;46418;-65
2022/03/06 04:08:46;;;;;;;18.10;8.33;;;-3.90;47.80;;;;;;5034415;28;45835;-66
2022/03/06 04:11:12;;;;;;;16.93;8.10;;;-3.90;47.90;;;;;;5033532;28;46307;-65
2022/03/06 04:13:37;;;;;;;16.90;7.80;;;-4.00;48.00;;;;;;5031093;28;46035;-69
2022/03/06 04:16:03;;;;;;;21.20;8.80;;;-4.00;48.00;;;;;;5031930;28;47274;-68
2022/03/06 04:18:29;;;;;;;19.80;9.17;;;-4.00;48.10;;;;;;5027783;28;46445;-67
2022/03/06 04:20:55;;;;;;;17.50;8.77;;;-4.00;48.10;;;;;;5029586;28;46359;-66
2022/03/06 04:23:20;;;;;;;16.90;8.63;;;-4.10;48.00;;;;;;5030417;28;46445;-66
2022/03/06 04:25:46;;;;;;;15.67;7.77;;;-4.10;48.00;;;;;;5025617;28;46501;-66
2022/03/06 04:28:12;;;;;;;16.90;7.53;;;-4.10;48.10;;;;;;5025218;28;46395;-66
2022/03/06 04:30:37;;;;;;;24.13;8.43;;;-4.20;48.10;;;;;;5029115;28;46504;-70
2022/03/06 04:33:04;;;;;;;16.87;8.77;;;-4.20;48.10;;;;;;5032564;28;46669;-65
2022/03/06 04:35:29;;;;;;;19.48;8.77;;;-4.20;48.20;;;;;;5031914;28;46525;-66
2022/03/06 04:37:55;;;;;;;21.70;9.43;;;-4.20;48.20;;;;;;5035257;28;46424;-66
2022/03/06 04:40:20;;;;;;;19.67;8.53;;;-4.20;48.10;;;;;;5027978;28;46503;-67
2022/03/06 04:42:46;;;;;;;18.13;7.87;;;-4.30;48.00;;;;;;5026756;28;45870;-67
2022/03/06 04:45:11;;;;;;;18.33;8.53;;;-4.20;48.10;;;;;;5034419;28;46431;-66
2022/03/06 04:47:37;;;;;;;16.90;8.50;;;-4.30;48.00;;;;;;5032492;28;46379;-66
2022/03/06 04:50:04;;;;;;;14.23;7.70;;;-4.30;48.00;;;;;;5026287;28;46370;-65
2022/03/06 04:52:30;;;;;;;15.65;7.25;;;-4.40;48.00;;;;;;5030276;28;46342;-65
2022/03/06 04:54:55;;;;;;;19.60;8.17;;;-4.40;48.00;;;;;;5032993;28;47115;-66
2022/03/06 04:57:21;;;;;;;18.13;8.37;;;-4.40;48.10;;;;;;5029534;28;46533;-66
2022/03/06 04:59:46;;;;;;;16.60;8.13;;;-4.50;48.20;;;;;;5033690;28;46302;-66
2022/03/06 05:02:12;;;;;;;19.73;7.97;;;-4.50;48.00;;;;;;5028803;28;46337;-66
2022/03/06 05:04:38;;;;;;;18.63;8.60;;;-4.50;48.00;;;;;;5032308;28;47268;-68
2022/03/06 05:07:04;;;;;;;24.93;8.73;;;-4.50;48.10;;;;;;5032454;28;46365;-66
2022/03/06 05:09:29;;;;;;;19.83;8.82;;;-4.50;48.20;;;;;;5030698;28;46369;-66
2022/03/06 05:11:55;;;;;;;18.73;8.30;;;-4.50;48.10;;;;;;5031468;28;46346;-66
2022/03/06 05:14:20;;;;;;;16.10;8.50;;;-4.50;48.10;;;;;;5032167;28;46394;-68
2022/03/06 05:16:46;;;;;;;28.90;9.53;;;-4.60;48.10;;;;;;5036340;28;45895;-66
2022/03/06 05:19:12;;;;;;;17.27;7.93;;;-4.50;48.10;;;;;;5036980;28;46390;-68
2022/03/06 05:21:37;;;;;;;18.23;8.00;;;-4.60;48.00;;;;;;5033346;28;46319;-67
2022/03/06 05:24:04;;;;;;;20.27;9.23;;;-4.60;48.10;;;;;;5035023;28;47178;-65
2022/03/06 05:26:30;;;;;;;16.95;8.38;;;-4.60;48.10;;;;;;5032581;28;46547;-65
2022/03/06 05:28:55;;;;;;;17.07;8.70;;;-4.60;48.10;;;;;;5031520;28;46425;-69
2022/03/06 05:31:21;;;;;;;22.00;9.30;;;-4.60;48.00;;;;;;5031134;28;46482;-65
2022/03/06 05:33:46;;;;;;;20.30;8.97;;;-4.60;48.20;;;;;;5029589;28;46507;-64
2022/03/06 05:36:12;;;;;;;17.67;8.87;;;-4.60;48.10;;;;;;5032361;28;45870;-67
2022/03/06 05:38:38;;;;;;;22.30;9.37;;;-4.60;48.00;;;;;;5032488;28;46316;-69
2022/03/06 05:41:03;;;;;;;17.00;8.40;;;-4.60;48.10;;;;;;5026407;28;46799;-66
2022/03/06 05:43:29;;;;;;;16.47;8.13;;;-4.70;48.10;;;;;;5028975;28;47257;-65
2022/03/06 05:45:55;;;;;;;20.90;9.13;;;-4.70;48.20;;;;;;5028508;28;45836;-69
2022/03/06 05:48:21;;;;;;;16.90;7.57;;;-4.70;48.10;;;;;;5028553;28;46463;-66
2022/03/06 05:50:48;;;;;;;16.90;7.68;;;-4.70;48.10;;;;;;5028909;28;46365;-67
2022/03/06 05:53:14;;;;;;;18.02;8.90;;;-4.60;48.20;;;;;;5035422;28;46327;-65
2022/03/06 05:55:39;;;;;;;22.27;9.32;;;-4.70;48.10;;;;;;5031757;28;46398;-66
2022/03/06 05:58:05;;;;;;;17.80;8.93;;;-4.60;48.20;;;;;;5028607;28;46315;-65
2022/03/06 06:00:31;;;;;;;21.67;8.80;;;-4.60;48.10;;;;;;5031760;28;46424;-67
2022/03/06 06:02:57;;;;;;;18.50;8.37;;;-4.60;48.00;;;;;;5025975;28;49157;-65
2022/03/06 06:05:23;;;;;;;16.75;8.00;;;-4.50;47.90;;;;;;5031521;28;46542;-66
2022/03/06 06:07:49;;;;;;;21.60;8.80;;;-4.40;47.80;;;;;;5033703;28;46365;-66
2022/03/06 06:10:15;;;;;;;19.92;9.68;;;-4.30;47.60;;;;;;5025643;28;46421;-67
2022/03/06 06:12:41;;;;;;;20.23;9.05;;;-4.10;47.60;;;;;;5027476;28;47060;-67
2022/03/06 06:15:08;;;;;;;18.63;8.98;;;-4.00;47.30;;;;;;5029572;28;46446;-67
2022/03/06 06:17:34;;;;;;;19.83;9.75;;;-3.80;47.10;;;;;;5029170;28;46503;-64
2022/03/06 06:20:01;;;;;;;18.77;9.35;;;-3.60;46.70;;;;;;5028289;28;46387;-65
2022/03/06 06:22:28;;;;;;;17.67;9.57;;;-3.30;46.50;;;;;;5028902;28;46493;-64
2022/03/06 06:24:54;;;;;;;19.17;9.55;;;-3.20;46.10;;;;;;5027928;28;46680;-64
2022/03/06 06:27:20;;;;;;;23.58;9.90;;;-2.90;45.90;;;;;;5025488;28;46481;-66
2022/03/06 06:29:45;;;;;;;19.97;10.00;;;-2.80;45.50;;;;;;5024656;28;45878;-69
2022/03/06 06:32:11;;;;;;;21.53;10.00;;;-2.60;45.50;;;;;;5025614;28;47669;-66
2022/03/06 06:34:37;;;;;;;19.07;10.30;;;-2.50;45.50;;;;;;5026393;28;46430;-65
2022/03/06 06:37:03;;;;;;;20.77;10.30;;;-2.50;45.70;;;;;;5025087;28;46513;-66
2022/03/06 06:39:28;;;;;;;20.30;9.70;;;-2.40;45.80;;;;;;5021807;28;45858;-64
2022/03/06 06:41:54;;;;;;;21.63;10.17;;;-2.30;45.80;;;;;;5032035;28;46518;-65
2022/03/06 06:44:19;;;;;;;21.00;10.07;;;-2.20;45.90;;;;;;5030982;28;46508;-65
2022/03/06 06:46:45;;;;;;;23.97;11.87;;;-2.10;46.00;;;;;;5033940;28;46429;-66
2022/03/06 06:49:11;;;;;;;19.53;11.07;;;-2.00;46.10;;;;;;5029404;28;46446;-68
2022/03/06 06:51:38;;;;;;;19.80;10.20;;;-1.80;46.50;;;;;;5026290;28;47076;-66
2022/03/06 06:54:04;;;;;;;23.25;11.27;;;-1.70;46.40;;;;;;5028222;28;46658;-66
2022/03/06 06:56:30;;;;;;;22.08;11.38;;;-1.50;46.10;;;;;;5026305;28;46620;-65
2022/03/06 06:58:56;;;;;;;21.40;10.10;;;-1.50;46.10;;;;;;5025241;28;46370;-66
2022/03/06 07:01:21;;;;;;;26.60;12.53;;;-1.30;46.00;;;;;;5027475;28;46446;-66
2022/03/06 07:03:47;;;;;;;29.10;13.67;;;-1.20;46.20;;;;;;5030199;28;46417;-67
2022/03/06 07:06:12;;;;;;;24.50;12.20;;;-1.20;47.50;;;;;;5026744;28;46335;-65
2022/03/06 07:08:38;;;;;;;26.23;13.43;;;-1.10;46.30;;;;;;5029445;28;46369;-66
2022/03/06 07:11:04;;;;;;;25.90;12.93;;;-0.90;46.30;;;;;;5029812;28;47220;-64
2022/03/06 07:13:29;;;;;;;26.53;13.10;;;-0.70;46.10;;;;;;5029270;28;46274;-65
2022/03/06 07:15:55;;;;;;;30.20;12.40;;;-0.50;45.80;;;;;;5029193;28;46315;-66
2022/03/06 07:18:20;;;;;;;26.10;12.33;;;-0.30;45.60;;;;;;5033577;28;46086;-65
2022/03/06 07:20:46;;;;;;;23.37;12.00;;;-0.10;45.50;;;;;;5033622;28;47202;-64
2022/03/06 07:23:11;;;;;;;23.47;11.50;;;0.00;45.40;;;;;;5031801;28;46423;-64
2022/03/06 07:25:37;;;;;;;27.10;11.67;;;-0.10;46.00;;;;;;5029912;28;45871;-66
2022/03/06 07:28:03;;;;;;;24.83;11.20;;;-0.20;46.50;;;;;;5028972;28;46363;-64
2022/03/06 07:30:29;;;;;;;29.63;12.80;;;-0.20;46.80;;;;;;5031360;28;48481;-64
2022/03/06 07:32:54;;;;;;;18.33;10.77;;;-0.20;46.80;;;;;;5031865;28;46456;-64
2022/03/06 07:35:21;;;;;;;21.60;10.70;;;-0.20;47.50;;;;;;5029273;28;46398;-65
2022/03/06 07:37:47;;;;;;;22.75;10.27;;;-0.30;47.80;;;;;;5032760;28;46467;-64
2022/03/06 07:40:15;;;;;;;21.63;11.30;;;-0.30;48.30;;;;;;5032563;28;46145;-64
2022/03/06 07:42:41;;;;;;;23.00;10.05;;;-0.20;48.40;;;;;;5032818;28;46386;-64
2022/03/06 07:45:07;;;;;;;20.47;11.77;;;-0.30;48.50;;;;;;5030764;28;46465;-64
2022/03/06 07:47:33;;;;;;;24.13;11.15;;;-0.20;49.00;;;;;;5029463;28;46561;-64
2022/03/06 07:49:59;;;;;;;22.67;10.40;;;-0.10;49.10;;;;;;5028983;28;46178;-65
2022/03/06 07:52:24;;;;;;;23.33;10.23;;;0.00;49.40;;;;;;5027125;28;46420;-62
2022/03/06 07:54:50;;;;;;;19.60;9.10;;;0.10;49.50;;;;;;5026218;28;46366;-66
2022/03/06 07:57:16;;;;;;;18.37;10.77;;;0.20;49.60;;;;;;5028612;28;46447;-65
2022/03/06 07:59:41;;;;;;;20.70;10.07;;;0.40;49.40;;;;;;5027542;28;46351;-65
2022/03/06 08:02:07;;;;;;;18.47;10.40;;;0.40;49.30;;;;;;5029146;28;46367;-64
2022/03/06 08:04:32;;;;;;;19.33;10.23;;;0.50;49.60;;;;;;5031394;28;46411;-63
2022/03/06 08:06:59;;;;;;;20.43;11.20;;;0.40;49.60;;;;;;5031586;28;46359;-66
2022/03/06 08:09:24;;;;;;;17.92;8.77;;;0.50;50.00;;;;;;5033558;28;47091;-66
2022/03/06 08:11:51;;;;;;;15.70;8.93;;;0.60;50.20;;;;;;5029912;28;46386;-65
2022/03/06 08:14:17;;;;;;;22.70;10.23;;;0.60;51.10;;;;;;5027942;28;46595;-65
2022/03/06 08:16:42;;;;;;;23.60;12.37;;;0.70;50.00;;;;;;5027829;28;46353;-64
2022/03/06 08:19:08;;;;;;;20.07;10.30;;;0.80;50.00;;;;;;5031509;28;47168;-64
2022/03/06 08:21:34;;;;;;;22.83;10.63;;;0.90;49.60;;;;;;5031714;28;46372;-64
2022/03/06 08:24:00;;;;;;;19.93;10.60;;;1.10;49.40;;;;;;5028715;28;46432;-67
2022/03/06 08:26:25;;;;;;;33.33;15.10;;;1.10;49.00;;;;;;5026608;28;46859;-64
2022/03/06 08:28:52;;;;;;;30.67;15.10;;;1.20;48.90;;;;;;5032530;28;47071;-63
2022/03/06 08:31:18;;;;;;;26.63;13.48;;;1.20;48.50;;;;;;5031222;28;46716;-66
2022/03/06 08:33:44;;;;;;;18.77;10.35;;;1.30;48.50;;;;;;5029358;28;46314;-63
2022/03/06 08:36:10;;;;;;;32.27;15.70;;;1.50;48.00;;;;;;5033949;28;46333;-63
2022/03/06 08:38:36;;;;;;;34.80;16.30;;;1.60;47.70;;;;;;5034384;28;46520;-64
2022/03/06 08:41:02;;;;;;;36.53;16.60;;;1.50;47.00;;;;;;5029022;28;46410;-65
2022/03/06 08:43:27;;;;;;;23.07;10.73;;;1.50;47.30;;;;;;5032831;28;45920;-66
2022/03/06 08:45:53;;;;;;;17.87;9.67;;;1.60;47.00;;;;;;5036259;28;46311;-66
2022/03/06 08:48:21;;;;;;;26.53;10.17;;;1.70;46.40;;;;;;5034524;28;46506;-63
2022/03/06 08:50:49;;;;;;;22.55;11.40;;;1.70;46.10;;;;;;5034280;28;46319;-65
2022/03/06 08:53:18;;;;;;;20.48;11.15;;;1.70;45.80;;;;;;5037741;28;46471;-64
2022/03/06 08:55:44;;;;;;;20.75;9.57;;;1.70;46.30;;;;;;5035882;28;46433;-68
2022/03/06 08:58:10;;;;;;;19.70;9.90;;;1.80;45.50;;;;;;5035574;28;46362;-67
2022/03/06 09:00:35;;;;;;;19.57;10.17;;;2.00;45.70;;;;;;5032076;28;46405;-64
2022/03/06 09:03:01;;;;;;;21.03;12.13;;;1.90;45.70;;;;;;5030193;28;46362;-65
2022/03/06 09:05:27;;;;;;;19.17;10.77;;;2.00;45.70;;;;;;5026640;28;46364;-63
2022/03/06 09:07:52;;;;;;;20.43;9.97;;;2.00;45.80;;;;;;5026231;28;46403;-63
2022/03/06 09:10:18;;;;;;;20.27;9.80;;;2.10;45.90;;;;;;5023870;28;45848;-65
2022/03/06 09:12:44;;;;;;;20.23;11.10;;;2.10;45.60;;;;;;5040483;28;46470;-64
2022/03/06 09:15:11;;;;;;;24.63;10.57;;;2.10;45.40;;;;;;5029946;28;46296;-64
2022/03/06 09:17:37;;;;;;;21.98;9.40;;;2.20;45.10;;;;;;5038035;28;47249;-65
2022/03/06 09:20:04;;;;;;;19.23;10.73;;;2.10;44.60;;;;;;5034912;28;46483;-66
2022/03/06 09:22:30;;;;;;;21.63;10.10;;;2.20;44.90;;;;;;5034036;28;46394;-66
2022/03/06 09:24:55;;;;;;;19.87;9.90;;;2.20;44.20;;;;;;5035093;28;46427;-68
2022/03/06 09:27:21;;;;;;;18.53;9.10;;;2.20;44.40;;;;;;5027755;28;46217;-66
2022/03/06 09:29:46;;;;;;;25.90;10.30;;;2.30;44.30;;;;;;5031812;28;46382;-67
2022/03/06 09:32:12;;;;;;;18.70;9.50;;;2.40;43.80;;;;;;5030780;28;46390;-66
2022/03/06 09:34:38;;;;;;;15.93;7.23;;;2.40;42.80;;;;;;5033052;28;46316;-67
2022/03/06 09:37:04;;;;;;;21.43;10.43;;;2.40;42.20;;;;;;5027525;28;46391;-66
2022/03/06 09:39:29;;;;;;;16.60;8.05;;;2.30;41.60;;;;;;5029243;28;46515;-67
2022/03/06 09:41:56;;;;;;;17.83;8.80;;;2.40;40.80;;;;;;5030857;28;46319;-67
2022/03/06 09:44:24;;;;;;;17.65;9.70;;;2.40;39.80;;;;;;5026640;28;46573;-64
2022/03/06 09:46:52;;;;;;;14.52;7.70;;;2.50;38.70;;;;;;5031546;28;46716;-67
2022/03/06 09:49:18;;;;;;;17.88;8.80;;;2.50;38.40;;;;;;5027773;28;46554;-66
2022/03/06 09:51:44;;;;;;;18.52;8.27;;;2.60;38.20;;;;;;5027946;28;46152;-66
2022/03/06 09:54:12;;;;;;;16.38;7.90;;;2.70;37.80;;;;;;5034146;28;46405;-65
2022/03/06 09:56:38;;;;;;;17.48;7.38;;;2.80;36.90;;;;;;5034615;28;46523;-67
2022/03/06 09:59:03;;;;;;;15.33;7.30;;;2.80;36.10;;;;;;5026131;28;45811;-67
2022/03/06 10:01:29;;;;;;;12.97;7.57;;;2.80;35.50;;;;;;5030347;28;46462;-67
2022/03/06 10:03:55;;;;;;;17.80;9.67;;;2.90;34.90;;;;;;5030702;28;46628;-64
2022/03/06 10:06:21;;;;;;;12.90;8.17;;;2.90;34.80;;;;;;5036287;28;48120;-66
2022/03/06 10:09:09;;;;;;;14.68;6.90;;;3.10;34.40;;;;;;5040365;28;46390;-66
2022/03/06 10:11:39;;;;;;;10.57;6.00;;;3.10;33.40;;;;;;5030749;28;46407;-65
2022/03/06 10:14:05;;;;;;;9.15;5.53;;;3.20;33.10;;;;;;5049380;28;46635;-66
2022/03/06 10:16:33;;;;;;;17.05;7.82;;;3.20;32.10;;;;;;5031844;28;46476;-64
2022/03/06 10:19:01;;;;;;;15.88;7.55;;;3.10;31.40;;;;;;5047857;28;46391;-65
2022/03/06 10:21:33;;;;;;;12.35;7.00;;;3.00;31.60;;;;;;5031625;28;46216;-64
2022/03/06 10:24:06;;;;;;;14.50;7.95;;;3.10;31.50;;;;;;5030633;28;46564;-64
2022/03/06 10:26:34;;;;;;;13.07;7.03;;;3.10;31.30;;;;;;5028709;28;46635;-64
2022/03/06 10:29:11;;;;;;;13.38;7.22;;;3.00;30.50;;;;;;5034775;28;46589;-64
2022/03/06 10:31:52;;;;;;;14.38;7.60;;;3.10;30.90;;;;;;5031802;28;46575;-66
2022/03/06 10:34:18;;;;;;;17.20;8.30;;;3.20;30.80;;;;;;5032462;28;46373;-66
2022/03/06 10:36:51;;;;;;;13.02;6.82;;;3.30;30.70;;;;;;5030991;28;46360;-69
2022/03/06 10:39:19;;;;;;;16.23;8.38;;;3.40;30.90;;;;;;5035654;28;46464;-67
2022/03/06 10:41:47;;;;;;;18.08;7.72;;;3.40;31.10;;;;;;5030474;28;47078;-69
2022/03/06 10:44:14;;;;;;;16.20;8.40;;;3.60;31.50;;;;;;5031834;28;46421;-69
2022/03/06 10:46:41;;;;;;;14.50;7.63;;;3.70;30.40;;;;;;5030163;28;46421;-68
2022/03/06 10:49:16;;;;;;;16.35;6.70;;;3.80;29.90;;;;;;5029614;28;46441;-68
2022/03/06 10:51:46;;;;;;;14.88;7.45;;;3.80;29.60;;;;;;5031192;28;46299;-71
2022/03/06 10:54:14;;;;;;;14.98;7.88;;;3.80;29.30;;;;;;5032913;28;45907;-66
2022/03/06 10:56:42;;;;;;;13.40;7.60;;;3.90;28.90;;;;;;5031199;28;46391;-69
2022/03/06 10:59:08;;;;;;;10.52;6.70;;;3.90;28.70;;;;;;5028383;28;46341;-69
2022/03/06 11:01:34;;;;;;;14.00;7.53;;;4.00;28.90;;;;;;5027323;28;46447;-66
2022/03/06 11:04:02;;;;;;;12.60;6.00;;;4.00;28.30;;;;;;5031487;28;46654;-67
2022/03/06 11:06:31;;;;;;;12.73;7.00;;;4.00;28.30;;;;;;5034257;28;46453;-68
2022/03/06 11:08:57;;;;;;;12.05;6.57;;;4.10;28.20;;;;;;5033611;28;46334;-64
2022/03/06 11:11:23;;;;;;;12.93;8.07;;;4.20;28.20;;;;;;5027823;28;46389;-65
2022/03/06 11:13:52;;;;;;;13.10;6.70;;;4.00;28.00;;;;;;5030437;28;46433;-66
2022/03/06 11:16:18;;;;;;;10.77;6.25;;;4.20;28.30;;;;;;5035758;28;46719;-64
2022/03/06 11:18:44;;;;;;;13.43;7.50;;;4.40;27.80;;;;;;5029689;28;46506;-67
2022/03/06 11:21:10;;;;;;;15.70;7.23;;;4.40;27.80;;;;;;5027802;28;46354;-68
2022/03/06 11:23:46;;;;;;;12.93;7.20;;;4.30;27.40;;;;;;5031484;28;46537;-67
2022/03/06 11:26:17;;;;;;;12.73;6.40;;;4.30;27.70;;;;;;5031817;28;46477;-66
2022/03/06 11:29:04;;;;;;;17.98;7.20;;;4.50;27.70;;;;;;5024372;28;46465;-66
2022/03/06 11:31:47;;;;;;;13.93;6.50;;;4.10;26.70;;;;;;5034766;28;46547;-66
2022/03/06 11:34:22;;;;;;;12.63;6.90;;;4.20;26.80;;;;;;5033927;28;46485;-66
2022/03/06 11:36:49;;;;;;;15.27;7.20;;;4.10;26.90;;;;;;5034309;28;46432;-65
2022/03/06 11:39:34;;;;;;;11.18;6.45;;;4.00;26.60;;;;;;5034476;28;46442;-67
2022/03/06 11:42:05;;;;;;;14.13;7.30;;;4.00;26.60;;;;;;5030670;28;46620;-63
2022/03/06 11:44:38;;;;;;;15.33;7.30;;;4.10;27.00;;;;;;5026046;28;46556;-67
2022/03/06 11:47:35;;;;;;;13.50;7.10;;;4.20;26.50;;;;;;5031441;28;46369;-70
2022/03/06 11:50:01;;;;;;;15.05;8.02;;;4.40;26.20;;;;;;5027442;28;46398;-66
2022/03/06 11:52:28;;;;;;;13.73;7.20;;;4.40;26.20;;;;;;5024817;28;46422;-66
2022/03/06 11:54:54;;;;;;;14.27;7.63;;;4.40;26.30;;;;;;5030134;28;46541;-66
2022/03/06 11:57:36;;;;;;;14.00;6.83;;;4.40;26.50;;;;;;5025909;28;46433;-67
2022/03/06 12:00:19;;;;;;;12.43;6.70;;;4.60;26.20;;;;;;5035736;28;46484;-70
2022/03/06 12:02:51;;;;;;;13.70;6.40;;;4.50;26.00;;;;;;5033307;28;45779;-69
2022/03/06 12:05:17;;;;;;;15.23;7.67;;;4.50;25.40;;;;;;5031028;28;46553;-66
2022/03/06 12:07:45;;;;;;;12.70;6.63;;;4.40;25.60;;;;;;5029460;28;46342;-65
2022/03/06 12:10:13;;;;;;;16.87;8.00;;;4.50;25.80;;;;;;5032370;28;46644;-65
2022/03/06 12:12:39;;;;;;;14.60;7.73;;;4.60;25.90;;;;;;5030185;28;46509;-67
2022/03/06 12:15:16;;;;;;;13.80;8.03;;;4.60;25.60;;;;;;5026907;28;46932;-66
2022/03/06 12:17:42;;;;;;;14.30;8.17;;;4.70;26.40;;;;;;5028193;28;47276;-70
2022/03/06 12:20:08;;;;;;;17.03;7.53;;;4.70;25.50;;;;;;5033167;28;46425;-66
2022/03/06 12:22:43;;;;;;;15.63;7.50;;;4.70;25.30;;;;;;5024978;28;46433;-67
2022/03/06 12:25:09;;;;;;;10.70;6.20;;;4.70;25.20;;;;;;5028671;28;46412;-64
2022/03/06 12:27:37;;;;;;;16.53;7.83;;;4.70;24.40;;;;;;5031685;28;46421;-66
2022/03/06 12:30:16;;;;;;;14.32;7.40;;;4.70;24.40;;;;;;5033609;28;46721;-66
2022/03/06 12:32:42;;;;;;;13.37;7.17;;;4.50;24.30;;;;;;5029509;28;46376;-67
2022/03/06 12:35:17;;;;;;;11.80;7.30;;;4.50;24.50;;;;;;5025284;28;46691;-66